Time;durP1;ratioP1;P1;durP2;ratioP2;P2;SDS_P1;SDS_P2;PMS_P1;PMS_P2;Temp;Humidity;BMP_temperature;BMP_pressure;BME280_temperature;BME280_humidity;BME280_pressure;Samples;Min_cycle;Max_cycle;Signal;HPM_P1;HPM_P2
2024/01/23 00:02:27;;;;;;;15.80;2.90;;;12.10;99.90;;;;;;7377989;19;20032;-74
2024/01/23 00:04:55;;;;;;;20.65;3.10;;;12.20;99.90;;;;;;7377839;19;20006;-73
2024/01/23 00:07:24;;;;;;;22.90;3.97;;;12.00;99.90;;;;;;7378256;19;20003;-74
2024/01/23 00:09:53;;;;;;;22.63;3.60;;;12.10;99.90;;;;;;7378788;19;20075;-75
2024/01/23 00:12:24;;;;;;;22.98;3.20;;;12.10;99.90;;;;;;7398105;19;20066;-74
2024/01/23 00:14:58;;;;;;;22.88;3.35;;;12.10;99.90;;;;;;7377058;19;20273;-74
2024/01/23 00:17:27;;;;;;;15.57;3.10;;;12.20;99.90;;;;;;7377570;19;20009;-75
2024/01/23 00:19:56;;;;;;;22.92;3.60;;;12.20;99.90;;;;;;7377889;19;20067;-74
2024/01/23 00:22:25;;;;;;;18.05;2.90;;;12.20;99.90;;;;;;7377280;19;20007;-75
2024/01/23 00:24:53;;;;;;;22.05;3.30;;;12.10;99.90;;;;;;7378225;19;20013;-74
2024/01/23 00:27:22;;;;;;;16.38;3.25;;;12.10;99.90;;;;;;7401383;19;20020;-74
2024/01/23 00:29:51;;;;;;;37.33;4.45;;;12.20;99.90;;;;;;7377119;19;20236;-74
2024/01/23 00:32:23;;;;;;;23.15;3.40;;;12.10;99.90;;;;;;7377470;19;20007;-74
2024/01/23 00:34:52;;;;;;;19.17;3.53;;;12.20;99.90;;;;;;7378024;19;20007;-74
2024/01/23 00:37:21;;;;;;;24.80;3.47;;;12.10;99.90;;;;;;7378456;19;20022;-73
2024/01/23 00:39:50;;;;;;;28.73;3.30;;;12.20;99.90;;;;;;7380012;19;20070;-75
2024/01/23 00:42:19;;;;;;;17.85;2.92;;;12.20;99.90;;;;;;7398239;19;20023;-74
2024/01/23 00:44:48;;;;;;;19.98;3.35;;;12.10;99.90;;;;;;7376923;19;20063;-74
2024/01/23 00:47:19;;;;;;;18.50;3.33;;;12.10;99.90;;;;;;7377415;19;20070;-74
2024/01/23 00:49:50;;;;;;;16.42;3.40;;;11.90;99.90;;;;;;7377554;19;20007;-73
2024/01/23 00:52:19;;;;;;;28.85;3.25;;;11.90;99.90;;;;;;7379282;19;20011;-73
2024/01/23 00:54:47;;;;;;;31.80;3.75;;;12.10;99.90;;;;;;7380598;19;20074;-74
2024/01/23 00:57:16;;;;;;;21.38;3.22;;;11.90;99.90;;;;;;7401434;19;20023;-73
2024/01/23 00:59:45;;;;;;;26.58;3.58;;;12.10;99.90;;;;;;7378240;19;20098;-74
2024/01/23 01:02:16;;;;;;;39.25;4.03;;;12.00;99.90;;;;;;7376276;19;20365;-74
2024/01/23 01:04:46;;;;;;;19.42;2.88;;;12.00;99.90;;;;;;7380103;19;20006;-74
2024/01/23 01:07:18;;;;;;;18.50;3.17;;;12.00;99.90;;;;;;7377355;19;20003;-73
2024/01/23 01:09:46;;;;;;;23.25;3.20;;;11.90;99.90;;;;;;7377856;19;20013;-74
2024/01/23 01:12:15;;;;;;;12.52;2.97;;;12.00;99.90;;;;;;7397782;19;20007;-74
2024/01/23 01:14:44;;;;;;;24.40;3.08;;;11.90;99.90;;;;;;7375979;19;20007;-74
2024/01/23 01:17:13;;;;;;;28.30;3.83;;;11.90;99.90;;;;;;7380474;19;20441;-74
2024/01/23 01:19:42;;;;;;;25.52;3.65;;;11.90;99.90;;;;;;7384191;19;20006;-74
2024/01/23 01:22:10;;;;;;;24.85;3.42;;;11.80;99.90;;;;;;7382444;19;20390;-73
2024/01/23 01:24:42;;;;;;;14.32;3.40;;;12.00;99.90;;;;;;7384078;19;20075;-74
2024/01/23 01:27:10;;;;;;;25.83;3.28;;;12.00;99.90;;;;;;7402756;19;20066;-74
2024/01/23 01:29:39;;;;;;;19.08;3.53;;;12.10;99.90;;;;;;7389329;19;20013;-74
2024/01/23 01:32:11;;;;;;;21.23;3.35;;;12.10;99.90;;;;;;7391737;19;20003;-74
2024/01/23 01:34:40;;;;;;;27.60;3.40;;;12.10;99.90;;;;;;7393457;19;20104;-74
2024/01/23 01:37:10;;;;;;;25.98;3.30;;;12.10;99.90;;;;;;7391487;19;20011;-74
2024/01/23 01:39:41;;;;;;;20.55;3.65;;;12.00;99.90;;;;;;7394028;19;20007;-74
2024/01/23 01:42:10;;;;;;;15.07;2.83;;;11.90;99.90;;;;;;7409791;19;20225;-74
2024/01/23 01:44:39;;;;;;;30.25;4.00;;;12.00;99.90;;;;;;7383290;19;20010;-73
2024/01/23 01:47:07;;;;;;;37.05;4.05;;;11.80;99.90;;;;;;7384289;19;20019;-73
2024/01/23 01:49:36;;;;;;;22.25;3.20;;;11.90;99.90;;;;;;7383647;19;20070;-74
2024/01/23 01:52:06;;;;;;;22.65;3.58;;;11.90;99.90;;;;;;7382910;19;20097;-73
2024/01/23 01:54:35;;;;;;;26.27;4.13;;;11.90;99.90;;;;;;7407445;19;20265;-73
2024/01/23 01:57:07;;;;;;;25.95;3.60;;;11.90;99.90;;;;;;7384498;19;20007;-73
2024/01/23 01:59:37;;;;;;;;;;;12.00;99.90;;;;;;7382703;19;20003;-73
2024/01/23 02:02:07;;;;;;;15.32;3.03;;;12.10;99.90;;;;;;7380366;19;19911;-75
2024/01/23 02:04:36;;;;;;;27.48;4.13;;;12.00;99.90;;;;;;7381916;19;20002;-74
2024/01/23 02:07:05;;;;;;;28.08;3.70;;;12.00;99.90;;;;;;7382170;19;20079;-75
2024/01/23 02:09:33;;;;;;;25.83;3.22;;;12.00;99.90;;;;;;7404022;19;20015;-75
2024/01/23 02:12:07;;;;;;;14.55;2.80;;;12.00;99.90;;;;;;7383876;19;20090;-75
2024/01/23 02:14:35;;;;;;;25.63;3.47;;;12.00;99.90;;;;;;7380805;19;20010;-74
2024/01/23 02:17:04;;;;;;;25.13;2.97;;;11.90;99.90;;;;;;7381986;19;20640;-74
2024/01/23 02:19:33;;;;;;;23.95;3.47;;;11.90;99.90;;;;;;7382007;19;20074;-74
2024/01/23 02:22:02;;;;;;;24.30;3.00;;;11.90;99.90;;;;;;7382850;19;20062;-75
2024/01/23 02:24:33;;;;;;;14.60;2.80;;;11.90;99.90;;;;;;7402689;19;20062;-74
2024/01/23 02:27:02;;;;;;;24.88;3.30;;;11.90;99.90;;;;;;7380015;19;20067;-74
2024/01/23 02:29:30;;;;;;;21.65;2.50;;;11.90;99.90;;;;;;7380522;19;20062;-74
2024/01/23 02:31:59;;;;;;;16.58;2.80;;;11.90;99.90;;;;;;7381001;19;20572;-74
2024/01/23 02:34:28;;;;;;;26.00;3.58;;;11.80;99.90;;;;;;7381205;19;20059;-74
2024/01/23 02:36:56;;;;;;;22.35;3.42;;;11.80;99.90;;;;;;7381218;19;20020;-73
2024/01/23 02:39:24;;;;;;;29.08;3.65;;;11.70;99.90;;;;;;7406049;19;20446;-74
2024/01/23 02:41:55;;;;;;;30.08;3.60;;;11.70;99.90;;;;;;7379149;19;20011;-73
2024/01/23 02:44:24;;;;;;;26.90;3.28;;;11.70;99.90;;;;;;7380162;19;20272;-73
2024/01/23 02:46:53;;;;;;;23.08;3.30;;;11.70;99.90;;;;;;7380841;19;20066;-74
2024/01/23 02:49:21;;;;;;;28.55;3.75;;;11.60;99.90;;;;;;7380115;19;20115;-73
2024/01/23 02:51:50;;;;;;;22.05;3.45;;;11.50;99.90;;;;;;7379825;19;20281;-74
2024/01/23 02:54:19;;;;;;;27.30;3.63;;;11.50;99.90;;;;;;7403486;19;20017;-74
2024/01/23 02:56:48;;;;;;;26.27;3.05;;;11.40;99.90;;;;;;7380282;19;20066;-73
2024/01/23 02:59:19;;;;;;;18.00;3.50;;;11.50;99.90;;;;;;7381049;19;20006;-73
2024/01/23 03:01:47;;;;;;;20.38;2.83;;;11.40;99.90;;;;;;7379446;19;20352;-73
2024/01/23 03:04:16;;;;;;;19.67;3.55;;;11.40;99.90;;;;;;7380598;19;20013;-74
2024/01/23 03:06:45;;;;;;;10.32;2.70;;;11.40;99.90;;;;;;7380033;19;20037;-73
2024/01/23 03:09:13;;;;;;;24.65;3.13;;;11.40;99.90;;;;;;7401286;19;20012;-74
2024/01/23 03:11:42;;;;;;;16.05;2.83;;;11.30;99.90;;;;;;7379505;19;20378;-73
2024/01/23 03:14:11;;;;;;;28.55;2.85;;;11.30;99.90;;;;;;7379390;19;20010;-74
2024/01/23 03:16:42;;;;;;;12.25;3.00;;;11.30;99.90;;;;;;7379664;19;20055;-73
2024/01/23 03:19:11;;;;;;;27.85;3.90;;;11.20;99.90;;;;;;7380167;19;20066;-73
2024/01/23 03:21:40;;;;;;;21.33;3.47;;;11.20;99.90;;;;;;7390986;19;20316;-74
2024/01/23 03:24:09;;;;;;;18.42;3.15;;;11.20;99.90;;;;;;7400425;19;20066;-74
2024/01/23 03:26:37;;;;;;;27.98;3.33;;;11.20;99.90;;;;;;7378031;19;20422;-75
2024/01/23 03:29:06;;;;;;;27.88;3.55;;;11.20;99.90;;;;;;7380939;19;20062;-74
2024/01/23 03:31:36;;;;;;;20.13;2.72;;;11.10;99.90;;;;;;7379299;19;20074;-73
2024/01/23 03:34:07;;;;;;;11.80;3.03;;;11.10;99.90;;;;;;7379366;19;20031;-73
2024/01/23 03:36:36;;;;;;;27.55;3.55;;;11.10;99.90;;;;;;7400003;19;20007;-74
2024/01/23 03:39:07;;;;;;;20.45;3.42;;;11.10;99.90;;;;;;7380304;19;20009;-74
2024/01/23 03:41:37;;;;;;;24.65;3.60;;;11.00;99.90;;;;;;7378310;19;20261;-74
2024/01/23 03:44:06;;;;;;;17.38;3.28;;;11.00;99.90;;;;;;7378927;19;20003;-74
2024/01/23 03:46:35;;;;;;;29.25;3.95;;;11.00;99.90;;;;;;7379137;19;20006;-73
2024/01/23 03:49:03;;;;;;;21.55;3.35;;;11.00;99.90;;;;;;7379603;19;20025;-74
2024/01/23 03:51:35;;;;;;;24.33;3.80;;;11.00;99.90;;;;;;7400220;19;20434;-74
2024/01/23 03:54:03;;;;;;;23.17;3.17;;;11.00;99.90;;;;;;7378104;19;20023;-74
2024/01/23 03:56:32;;;;;;;23.92;3.70;;;11.00;99.90;;;;;;7377312;19;20006;-73
2024/01/23 03:59:00;;;;;;;23.52;3.40;;;11.00;99.90;;;;;;7377388;19;20324;-73
2024/01/23 04:01:29;;;;;;;26.20;3.45;;;11.00;99.90;;;;;;7378236;19;20011;-73
2024/01/23 04:03:58;;;;;;;29.48;3.80;;;11.00;99.90;;;;;;7379739;19;20114;-74
2024/01/23 04:06:26;;;;;;;22.65;3.40;;;10.90;99.90;;;;;;7401346;19;20070;-73
2024/01/23 04:08:58;;;;;;;29.83;3.95;;;10.90;99.90;;;;;;7383562;19;20003;-74
2024/01/23 04:11:26;;;;;;;22.15;3.85;;;10.90;99.90;;;;;;7384034;19;20003;-74
2024/01/23 04:13:55;;;;;;;29.63;3.42;;;10.90;99.90;;;;;;7385114;19;20069;-74
2024/01/23 04:16:24;;;;;;;33.38;3.55;;;10.90;99.90;;;;;;7384541;19;20003;-73
2024/01/23 04:18:54;;;;;;;26.70;4.32;;;10.90;99.90;;;;;;7385437;19;20021;-74
2024/01/23 04:21:24;;;;;;;24.00;3.97;;;11.00;99.90;;;;;;7407371;19;20070;-75
2024/01/23 04:23:53;;;;;;;30.77;3.78;;;11.00;99.90;;;;;;7377813;19;20010;-74
2024/01/23 04:26:24;;;;;;;13.73;3.15;;;11.10;99.90;;;;;;7377483;19;20078;-73
2024/01/23 04:28:53;;;;;;;20.98;3.55;;;11.10;99.90;;;;;;7376658;19;20026;-73
2024/01/23 04:31:22;;;;;;;29.60;4.22;;;11.10;99.90;;;;;;7377636;19;20009;-74
2024/01/23 04:33:52;;;;;;;22.90;4.00;;;11.20;99.90;;;;;;7377380;19;20020;-74
2024/01/23 04:36:20;;;;;;;34.08;3.90;;;11.20;99.90;;;;;;7399579;19;20050;-74
2024/01/23 04:38:49;;;;;;;29.98;3.38;;;11.30;99.90;;;;;;7379919;19;20102;-75
2024/01/23 04:41:18;;;;;;;21.25;4.35;;;11.30;99.90;;;;;;7377489;19;20007;-74
2024/01/23 04:43:50;;;;;;;42.10;5.18;;;11.30;99.90;;;;;;7376131;19;20003;-74
2024/01/23 04:46:19;;;;;;;29.15;4.60;;;11.10;99.90;;;;;;7377397;19;20006;-74
2024/01/23 04:48:48;;;;;;;21.27;4.25;;;11.20;99.90;;;;;;7377212;19;20010;-73
2024/01/23 04:51:17;;;;;;;26.40;4.07;;;11.20;99.90;;;;;;7402971;19;20009;-73
2024/01/23 04:53:47;;;;;;;26.58;4.13;;;11.20;99.90;;;;;;7384138;19;20638;-73
2024/01/23 04:56:16;;;;;;;22.88;4.40;;;11.20;99.90;;;;;;7383938;19;20361;-74
2024/01/23 04:58:45;;;;;;;36.33;4.65;;;11.30;99.90;;;;;;7382739;19;20379;-74
2024/01/23 05:01:17;;;;;;;30.92;4.75;;;11.40;99.90;;;;;;7384319;19;20007;-73
2024/01/23 05:03:46;;;;;;;25.08;4.00;;;11.40;99.90;;;;;;7381828;19;20007;-73
2024/01/23 05:06:14;;;;;;;31.15;4.10;;;11.50;99.90;;;;;;7405310;19;20015;-74
2024/01/23 05:08:43;;;;;;;35.30;5.10;;;11.60;99.90;;;;;;7384424;19;20722;-73
2024/01/23 05:11:12;;;;;;;20.80;3.67;;;11.60;99.90;;;;;;7385096;19;20002;-73
2024/01/23 05:13:43;;;;;;;30.20;4.75;;;11.50;99.90;;;;;;7383004;19;19998;-73
2024/01/23 05:16:12;;;;;;;19.17;4.00;;;11.50;99.90;;;;;;7384060;19;20094;-73
2024/01/23 05:18:43;;;;;;;33.35;4.45;;;11.50;99.90;;;;;;7405981;19;20252;-72
2024/01/23 05:21:14;;;;;;;34.05;4.13;;;11.60;99.90;;;;;;7383173;19;20007;-72
2024/01/23 05:23:43;;;;;;;31.93;4.60;;;11.60;99.90;;;;;;7380650;19;20003;-74
2024/01/23 05:26:12;;;;;;;29.88;4.95;;;11.70;99.90;;;;;;7383167;19;20295;-73
2024/01/23 05:28:40;;;;;;;35.47;5.03;;;11.80;99.90;;;;;;7383583;19;20007;-73
2024/01/23 05:31:09;;;;;;;24.05;4.30;;;11.80;99.90;;;;;;7383219;19;20023;-74
2024/01/23 05:33:37;;;;;;;28.48;4.32;;;11.70;99.90;;;;;;7404469;19;20011;-73
2024/01/23 05:36:09;;;;;;;29.10;4.30;;;11.70;99.90;;;;;;7383683;19;20013;-73
2024/01/23 05:38:38;;;;;;;50.80;5.30;;;11.80;99.90;;;;;;7384548;19;20002;-74
2024/01/23 05:41:07;;;;;;;36.53;4.75;;;11.70;99.90;;;;;;7382589;19;20003;-73
2024/01/23 05:43:35;;;;;;;32.80;4.75;;;11.70;99.90;;;;;;7381897;19;20074;-74
2024/01/23 05:46:04;;;;;;;25.02;4.10;;;11.70;99.90;;;;;;7385474;19;20446;-74
2024/01/23 05:48:33;;;;;;;26.73;4.50;;;11.70;99.90;;;;;;7404233;19;20007;-74
2024/01/23 05:51:02;;;;;;;28.45;3.67;;;11.70;99.90;;;;;;7381764;19;20066;-74
2024/01/23 05:53:33;;;;;;;29.25;4.38;;;11.70;99.90;;;;;;7381899;19;20009;-73
2024/01/23 05:56:02;;;;;;;38.83;4.68;;;11.80;99.90;;;;;;7382424;19;20010;-73
2024/01/23 05:58:31;;;;;;;33.72;4.22;;;11.80;99.90;;;;;;7382477;19;20013;-73
2024/01/23 06:01:00;;;;;;;29.27;5.28;;;11.70;99.90;;;;;;7383042;19;20074;-74
2024/01/23 06:03:28;;;;;;;30.15;4.10;;;11.50;99.90;;;;;;7404147;19;20058;-75
2024/01/23 06:05:57;;;;;;;39.75;4.55;;;11.60;99.90;;;;;;7384728;19;20002;-73
2024/01/23 06:08:26;;;;;;;26.40;4.43;;;11.60;99.90;;;;;;7381650;19;20003;-74
2024/01/23 06:10:57;;;;;;;32.40;5.05;;;11.60;99.90;;;;;;7381530;19;20019;-73
2024/01/23 06:13:26;;;;;;;37.78;5.18;;;11.60;99.90;;;;;;7380797;19;20082;-73
2024/01/23 06:15:55;;;;;;;36.28;5.28;;;11.70;99.90;;;;;;7381668;19;20007;-73
2024/01/23 06:18:25;;;;;;;39.13;4.97;;;11.70;99.90;;;;;;7404028;19;20013;-73
2024/01/23 06:20:54;;;;;;;34.33;5.10;;;11.60;99.90;;;;;;7380884;19;20066;-73
2024/01/23 06:23:23;;;;;;;51.58;5.38;;;11.70;99.90;;;;;;7378957;19;20056;-74
2024/01/23 06:25:52;;;;;;;50.97;6.47;;;11.70;99.90;;;;;;7380598;19;20011;-74
2024/01/23 06:28:25;;;;;;;32.47;5.55;;;11.70;99.90;;;;;;7381676;19;20019;-74
2024/01/23 06:30:53;;;;;;;38.53;5.22;;;11.60;99.90;;;;;;7380529;19;20281;-74
2024/01/23 06:33:22;;;;;;;34.90;3.97;;;11.60;99.90;;;;;;7401999;19;20339;-73
2024/01/23 06:35:51;;;;;;;29.20;4.80;;;11.70;99.90;;;;;;7379976;19;20062;-73
2024/01/23 06:38:19;;;;;;;43.78;4.82;;;11.70;99.90;;;;;;7380109;19;20006;-73
2024/01/23 06:40:48;;;;;;;32.65;4.60;;;11.70;99.90;;;;;;7380933;19;20066;-73
2024/01/23 06:43:17;;;;;;;40.55;5.93;;;11.70;99.90;;;;;;7379635;19;20401;-73
2024/01/23 06:45:48;;;;;;;32.65;5.20;;;11.80;99.90;;;;;;7380126;19;20026;-73
2024/01/23 06:48:17;;;;;;;26.30;4.68;;;11.80;99.90;;;;;;7407594;19;20075;-74
2024/01/23 06:50:46;;;;;;;28.20;4.55;;;11.80;99.90;;;;;;7385919;19;20015;-74
2024/01/23 06:53:15;;;;;;;30.00;5.13;;;11.80;99.90;;;;;;7387467;19;20014;-74
2024/01/23 06:55:44;;;;;;;26.38;5.43;;;11.80;99.90;;;;;;7388242;19;20007;-74
2024/01/23 06:58:12;;;;;;;24.95;4.60;;;11.80;99.90;;;;;;7387451;19;20007;-75
2024/01/23 07:00:43;;;;;;;38.03;5.28;;;11.80;99.90;;;;;;7403599;19;20378;-74
2024/01/23 07:03:15;;;;;;;32.80;4.40;;;11.80;99.90;;;;;;7378516;19;20060;-75
2024/01/23 07:05:44;;;;;;;28.90;4.60;;;11.80;99.90;;;;;;7379484;19;20145;-73
2024/01/23 07:08:14;;;;;;;40.58;5.63;;;11.80;99.90;;;;;;7379764;19;20058;-73
2024/01/23 07:10:43;;;;;;;31.17;4.43;;;11.80;99.90;;;;;;7380234;19;20013;-73
2024/01/23 07:13:12;;;;;;;44.63;4.72;;;11.80;99.90;;;;;;7378939;19;20366;-73
2024/01/23 07:15:41;;;;;;;26.88;4.15;;;11.60;99.90;;;;;;7398845;19;20357;-73
2024/01/23 07:18:10;;;;;;;47.70;5.20;;;11.60;99.90;;;;;;7378506;19;20005;-75
2024/01/23 07:20:41;;;;;;;27.98;4.93;;;11.60;99.90;;;;;;7378505;19;20054;-74
2024/01/23 07:23:10;;;;;;;28.58;4.80;;;11.60;99.90;;;;;;7378524;19;20374;-74
2024/01/23 07:25:39;;;;;;;33.90;4.80;;;11.50;99.90;;;;;;7378987;19;20007;-73
2024/01/23 07:28:07;;;;;;;29.80;4.72;;;11.50;99.90;;;;;;7381506;19;20104;-73
2024/01/23 07:30:36;;;;;;;28.48;5.80;;;11.50;99.90;;;;;;7400123;19;20058;-73
2024/01/23 07:33:05;;;;;;;38.38;4.53;;;11.50;99.90;;;;;;7377716;19;20062;-74
2024/01/23 07:35:34;;;;;;;26.42;4.80;;;11.30;99.90;;;;;;7377954;19;20011;-73
2024/01/23 07:38:10;;;;;;;44.45;4.93;;;11.40;99.90;;;;;;7378716;19;20061;-74
2024/01/23 07:40:39;;;;;;;39.63;4.32;;;11.50;99.90;;;;;;7378758;19;20035;-74
2024/01/23 07:43:09;;;;;;;34.10;5.28;;;11.60;99.90;;;;;;7379069;19;20013;-74
2024/01/23 07:45:38;;;;;;;23.75;4.03;;;11.50;99.90;;;;;;7404048;19;20029;-74
2024/01/23 07:48:07;;;;;;;35.70;5.38;;;11.50;99.90;;;;;;7378546;19;20319;-74
2024/01/23 07:50:38;;;;;;;54.17;5.93;;;11.40;99.90;;;;;;7377701;19;20362;-74
2024/01/23 07:53:09;;;;;;;50.40;5.53;;;11.50;99.90;;;;;;7377833;19;20002;-74
2024/01/23 07:55:39;;;;;;;39.70;5.18;;;11.60;99.90;;;;;;7378265;19;20012;-74
2024/01/23 07:58:08;;;;;;;34.80;5.10;;;11.60;99.90;;;;;;7380219;19;20035;-74
2024/01/23 08:00:37;;;;;;;39.17;4.43;;;11.70;99.90;;;;;;7399231;19;20375;-74
2024/01/23 08:03:06;;;;;;;33.65;4.95;;;11.80;99.90;;;;;;7376679;19;20015;-74
2024/01/23 08:05:36;;;;;;;40.35;4.75;;;11.80;99.90;;;;;;7381728;19;20391;-73
2024/01/23 08:08:14;;;;;;;38.90;5.38;;;11.80;99.90;;;;;;7385205;19;20393;-73
2024/01/23 08:10:43;;;;;;;39.45;5.43;;;11.80;99.90;;;;;;7380680;19;20006;-73
2024/01/23 08:13:11;;;;;;;33.72;5.35;;;11.70;99.90;;;;;;7379279;19;20369;-73
2024/01/23 08:15:40;;;;;;;53.03;5.82;;;11.80;99.90;;;;;;7399112;19;20074;-73
2024/01/23 08:18:09;;;;;;;40.83;5.57;;;11.70;99.90;;;;;;7378416;19;19999;-74
2024/01/23 08:20:37;;;;;;;37.25;5.63;;;11.70;99.90;;;;;;7376805;19;20003;-73
2024/01/23 08:23:06;;;;;;;45.10;5.85;;;11.80;99.90;;;;;;7378722;19;20019;-73
2024/01/23 08:25:37;;;;;;;36.72;5.53;;;11.80;99.90;;;;;;7376610;19;20002;-74
2024/01/23 08:28:06;;;;;;;45.42;5.47;;;11.90;99.90;;;;;;7378047;19;20009;-73
2024/01/23 08:30:35;;;;;;;28.85;4.72;;;11.80;99.90;;;;;;7398624;19;20007;-73
2024/01/23 08:33:04;;;;;;;47.50;5.88;;;11.80;99.90;;;;;;7375076;19;20070;-74
2024/01/23 08:35:33;;;;;;;37.42;5.80;;;11.90;99.90;;;;;;7378435;19;20002;-73
2024/01/23 08:38:02;;;;;;;36.92;5.38;;;12.00;99.90;;;;;;7376887;19;20010;-75
2024/01/23 08:40:31;;;;;;;25.38;5.30;;;12.00;99.90;;;;;;7375997;19;20405;-74
2024/01/23 08:43:02;;;;;;;39.33;5.88;;;12.00;99.90;;;;;;7376248;19;20007;-75
2024/01/23 08:45:30;;;;;;;32.72;4.72;;;11.90;99.90;;;;;;7397975;19;20011;-74
2024/01/23 08:47:59;;;;;;;42.72;5.63;;;11.90;99.90;;;;;;7375955;19;20105;-74
2024/01/23 08:50:28;;;;;;;39.72;5.45;;;12.00;99.90;;;;;;7376188;19;20074;-73
2024/01/23 08:52:57;;;;;;;49.88;6.53;;;12.00;99.90;;;;;;7377097;19;20036;-74
2024/01/23 08:55:25;;;;;;;46.45;5.60;;;12.00;99.90;;;;;;7376425;19;20011;-75
2024/01/23 08:57:54;;;;;;;34.45;5.82;;;12.00;99.90;;;;;;7376503;19;20010;-75
2024/01/23 09:00:26;;;;;;;34.90;5.80;;;12.00;99.90;;;;;;7394372;19;20007;-74
2024/01/23 09:02:54;;;;;;;43.60;4.82;;;12.10;99.90;;;;;;7374603;19;20047;-74
2024/01/23 09:05:23;;;;;;;35.08;5.38;;;12.10;99.90;;;;;;7372328;19;20073;-75
2024/01/23 09:07:52;;;;;;;38.83;5.70;;;12.20;99.90;;;;;;7375664;19;20003;-74
2024/01/23 09:10:21;;;;;;;44.50;5.60;;;12.20;99.90;;;;;;7377456;19;20074;-75
2024/01/23 09:12:50;;;;;;;43.75;6.03;;;12.20;99.90;;;;;;7376312;19;20062;-74
2024/01/23 09:15:19;;;;;;;44.35;5.10;;;12.30;99.90;;;;;;7399889;19;20042;-72
2024/01/23 09:17:50;;;;;;;40.85;5.40;;;12.20;99.90;;;;;;7377787;19;20002;-74
2024/01/23 09:20:19;;;;;;;39.10;5.55;;;12.30;99.90;;;;;;7376558;19;20020;-73
2024/01/23 09:22:50;;;;;;;30.90;5.28;;;12.30;99.90;;;;;;7379717;19;20007;-74
2024/01/23 09:25:19;;;;;;;35.80;5.60;;;12.30;99.90;;;;;;7381113;19;20295;-74
2024/01/23 09:27:48;;;;;;;35.38;5.63;;;12.30;99.90;;;;;;7382591;19;20002;-74
2024/01/23 09:30:18;;;;;;;40.75;5.55;;;12.30;99.90;;;;;;7405388;19;20007;-74
2024/01/23 09:32:46;;;;;;;38.95;5.22;;;12.40;99.90;;;;;;7382027;19;20051;-74
2024/01/23 09:35:18;;;;;;;38.45;5.28;;;12.50;99.90;;;;;;7386361;19;20023;-74
2024/01/23 09:37:48;;;;;;;39.33;5.20;;;12.50;99.90;;;;;;7383546;19;20007;-74
2024/01/23 09:40:18;;;;;;;52.50;5.55;;;12.50;99.90;;;;;;7385501;19;19999;-74
2024/01/23 09:42:47;;;;;;;42.22;6.07;;;12.50;99.90;;;;;;7387355;19;20026;-74
2024/01/23 09:45:19;;;;;;;37.22;6.03;;;12.30;99.90;;;;;;7403970;19;19999;-74
2024/01/23 09:47:50;;;;;;;48.25;6.22;;;12.30;99.90;;;;;;7384618;19;20074;-74
2024/01/23 09:50:27;;;;;;;34.22;6.00;;;12.40;99.90;;;;;;7383967;19;20002;-74
2024/01/23 09:52:58;;;;;;;28.85;4.57;;;12.50;99.90;;;;;;7384309;19;20268;-74
2024/01/23 09:55:27;;;;;;;31.13;6.03;;;12.60;99.90;;;;;;7384961;19;20074;-73
2024/01/23 09:57:57;;;;;;;48.50;4.95;;;12.60;99.90;;;;;;7382319;19;20006;-74
2024/01/23 10:00:26;;;;;;;48.25;5.32;;;12.60;99.90;;;;;;7407924;19;20358;-74
2024/01/23 10:02:54;;;;;;;41.13;5.55;;;12.60;99.90;;;;;;7383812;19;20002;-73
2024/01/23 10:05:28;;;;;;;49.58;5.30;;;12.60;99.90;;;;;;7383944;19;20010;-73
2024/01/23 10:07:57;;;;;;;46.45;6.15;;;12.40;99.90;;;;;;7383632;19;20078;-76
2024/01/23 10:10:26;;;;;;;40.97;5.47;;;12.40;99.90;;;;;;7382105;19;20010;-72
2024/01/23 10:12:54;;;;;;;32.75;4.88;;;12.40;99.90;;;;;;7381790;19;20014;-73
2024/01/23 10:15:23;;;;;;;42.38;5.22;;;12.20;99.90;;;;;;7407689;19;20491;-73
2024/01/23 10:17:53;;;;;;;37.40;4.82;;;12.40;99.90;;;;;;7384618;19;20007;-74
2024/01/23 10:20:26;;;;;;;35.92;5.05;;;12.50;99.90;;;;;;7382063;19;20378;-73
2024/01/23 10:22:58;;;;;;;47.97;5.80;;;12.50;99.90;;;;;;7382062;19;20046;-74
2024/01/23 10:25:31;;;;;;;42.80;5.97;;;12.50;99.90;;;;;;7381239;19;20002;-73
2024/01/23 10:28:00;;;;;;;41.97;5.85;;;12.40;99.90;;;;;;7381228;19;20006;-74
2024/01/23 10:30:29;;;;;;;49.70;6.28;;;12.60;99.90;;;;;;7402943;19;20075;-74
2024/01/23 10:32:58;;;;;;;48.25;6.18;;;12.70;99.90;;;;;;7382903;19;20390;-74
2024/01/23 10:35:30;;;;;;;37.40;5.65;;;12.70;99.90;;;;;;7382635;19;20007;-75
2024/01/23 10:38:00;;;;;;;38.00;6.28;;;12.70;99.90;;;;;;7377360;19;20007;-73
2024/01/23 10:40:32;;;;;;;58.47;6.72;;;12.80;99.90;;;;;;7383453;19;20066;-72
2024/01/23 10:43:01;;;;;;;43.67;5.82;;;12.80;99.90;;;;;;7381740;19;20006;-73
2024/01/23 10:45:31;;;;;;;40.03;6.57;;;12.90;99.90;;;;;;7401241;19;20015;-73
2024/01/23 10:48:01;;;;;;;41.30;5.45;;;12.90;99.90;;;;;;7380144;19;20021;-75
2024/01/23 10:50:34;;;;;;;47.20;6.13;;;12.90;99.90;;;;;;7378421;19;20006;-74
2024/01/23 10:53:06;;;;;;;48.92;6.18;;;12.50;99.90;;;;;;7380301;19;20043;-75
2024/01/23 10:55:35;;;;;;;48.80;6.28;;;12.60;99.90;;;;;;7380434;19;20010;-73
2024/01/23 10:58:06;;;;;;;48.30;5.82;;;12.60;99.90;;;;;;7380425;19;20146;-74
2024/01/23 11:00:35;;;;;;;50.55;6.18;;;12.60;99.90;;;;;;7400029;19;20003;-74
2024/01/23 11:03:06;;;;;;;48.20;6.28;;;12.70;99.90;;;;;;7379605;19;20006;-74
2024/01/23 11:05:46;;;;;;;68.22;6.25;;;12.70;99.90;;;;;;7382371;19;20438;-73
2024/01/23 11:08:22;;;;;;;51.58;7.00;;;12.70;99.90;;;;;;7381669;19;20016;-73
2024/01/23 11:10:56;;;;;;;50.15;5.65;;;12.60;99.90;;;;;;7381055;19;20019;-73
2024/01/23 11:13:35;;;;;;;44.53;5.82;;;12.70;99.90;;;;;;7379145;19;20003;-73
2024/01/23 11:16:08;;;;;;;40.35;6.07;;;12.70;99.90;;;;;;7380553;19;20252;-75
2024/01/23 11:18:37;;;;;;;55.30;7.97;;;12.80;99.90;;;;;;7401187;19;20006;-74
2024/01/23 11:21:17;;;;;;;65.68;6.82;;;12.90;99.90;;;;;;7378430;19;20303;-74
2024/01/23 11:23:44;;;;;;;42.28;8.15;;;12.90;99.90;;;;;;7378607;19;20007;-74
2024/01/23 11:26:19;;;;;;;62.53;8.77;;;13.00;99.90;;;;;;7380008;19;20011;-75
2024/01/23 11:28:50;;;;;;;47.83;5.90;;;13.00;99.90;;;;;;7379386;19;20039;-74
2024/01/23 11:31:21;;;;;;;41.47;6.03;;;13.00;99.90;;;;;;7370406;19;20105;-73
2024/01/23 11:33:51;;;;;;;57.75;6.43;;;13.00;99.90;;;;;;7381964;19;20003;-74
2024/01/23 11:36:27;;;;;;;33.55;6.90;;;13.00;99.90;;;;;;7407066;19;20123;-74
2024/01/23 11:39:00;;;;;;;47.30;6.22;;;13.10;99.90;;;;;;7381023;19;19999;-76
2024/01/23 11:41:30;;;;;;;49.53;6.82;;;13.10;99.90;;;;;;7380680;19;20040;-74
2024/01/23 11:44:06;;;;;;;44.42;6.75;;;13.00;99.90;;;;;;7380954;19;20003;-72
2024/01/23 11:46:38;;;;;;;42.25;6.53;;;13.00;99.90;;;;;;7381706;19;20058;-73
2024/01/23 11:49:06;;;;;;;45.42;6.35;;;13.10;99.90;;;;;;7381224;19;20011;-73
2024/01/23 11:51:39;;;;;;;50.63;6.47;;;13.20;99.90;;;;;;7401658;19;20023;-74
2024/01/23 11:54:11;;;;;;;56.25;6.78;;;13.20;99.90;;;;;;7380251;19;20083;-73
2024/01/23 11:56:41;;;;;;;47.65;6.18;;;13.20;99.90;;;;;;7379924;19;20231;-75
2024/01/23 11:59:12;;;;;;;44.22;6.47;;;13.20;99.90;;;;;;7382041;19;20002;-75
2024/01/23 12:01:45;;;;;;;41.10;6.70;;;13.20;99.90;;;;;;7381270;19;20027;-75
2024/01/23 12:04:14;;;;;;;47.83;5.75;;;13.10;99.90;;;;;;7386898;19;20008;-75
2024/01/23 12:06:45;;;;;;;59.35;6.45;;;13.10;99.90;;;;;;7409239;19;20017;-74
2024/01/23 12:09:14;;;;;;;50.95;6.97;;;13.20;99.90;;;;;;7384009;19;20058;-73
2024/01/23 12:11:42;;;;;;;53.58;6.90;;;13.20;99.90;;;;;;7383707;19;20003;-73
2024/01/23 12:14:11;;;;;;;57.30;6.72;;;13.20;99.90;;;;;;7383154;19;20020;-74
2024/01/23 12:16:40;;;;;;;39.45;6.60;;;13.20;99.90;;;;;;7383139;19;20406;-73
2024/01/23 12:19:09;;;;;;;47.45;7.20;;;13.20;99.90;;;;;;7379488;19;19999;-73
2024/01/23 12:21:37;;;;;;;59.63;6.40;;;13.30;99.90;;;;;;7402120;19;20035;-74
2024/01/23 12:24:09;;;;;;;46.60;6.65;;;13.20;99.90;;;;;;7380959;19;20058;-73
2024/01/23 12:26:38;;;;;;;45.40;6.53;;;13.20;99.90;;;;;;7379608;19;20110;-74
2024/01/23 12:29:07;;;;;;;56.50;6.57;;;13.00;99.90;;;;;;7381840;19;20016;-73
2024/01/23 12:31:37;;;;;;;67.90;6.88;;;12.80;99.90;;;;;;7381492;19;20002;-73
2024/01/23 12:34:06;;;;;;;43.92;6.28;;;12.80;99.90;;;;;;7384062;19;20010;-74
2024/01/23 12:36:37;;;;;;;52.42;7.65;;;12.90;99.90;;;;;;7404793;19;20118;-72
2024/01/23 12:39:11;;;;;;;48.47;6.35;;;12.90;99.90;;;;;;7381039;19;20007;-75
2024/01/23 12:41:41;;;;;;;46.63;6.18;;;12.90;99.90;;;;;;7379299;19;19999;-73
2024/01/23 12:44:12;;;;;;;48.95;6.18;;;12.90;99.90;;;;;;7379002;19;20023;-74
2024/01/23 12:46:41;;;;;;;50.38;6.65;;;12.70;99.90;;;;;;7382342;19;20013;-73
2024/01/23 12:49:10;;;;;;;51.08;6.45;;;12.80;99.90;;;;;;7379625;19;20027;-73
2024/01/23 12:51:39;;;;;;;53.47;5.75;;;12.80;99.90;;;;;;7400835;19;20007;-73